Time;durP1;ratioP1;P1;durP2;ratioP2;P2;SDS_P1;SDS_P2;PMS_P1;PMS_P2;Temp;Humidity;BMP_temperature;BMP_pressure;BME280_temperature;BME280_humidity;BME280_pressure;Samples;Min_cycle;Max_cycle;Signal;HPM_P1;HPM_P2
2023/12/27 00:00:01;;;;;;;9.85;4.40;;;;;;;;;;679953;29;909;-82
2023/12/27 00:00:25;;;;;;;9.00;4.30;;;;;;;;;;677682;29;681;-82
2023/12/27 00:00:50;;;;;;;10.05;4.50;;;;;;;;;;681329;29;826;-81
2023/12/27 00:01:20;;;;;;;10.57;4.40;;;;;;;;;;677552;29;4314;-81
2023/12/27 00:01:43;;;;;;;11.38;4.35;;;;;;;;;;680736;28;1419;-82
2023/12/27 00:02:03;;;;;;;11.87;4.50;;;;;;;;;;680778;28;927;-83
2023/12/27 00:02:26;;;;;;;10.55;4.22;;;;;;;;;;683327;28;1382;-82
2023/12/27 00:02:46;;;;;;;12.13;4.43;;;;;;;;;;682348;28;1116;-81
2023/12/27 00:03:09;;;;;;;12.15;4.80;;;;;;;;;;682696;29;994;-82
2023/12/27 00:03:32;;;;;;;10.98;4.30;;;;;;;;;;679448;29;1387;-82
2023/12/27 00:03:54;;;;;;;14.07;4.20;;;;;;;;;;682722;29;1038;-80
2023/12/27 00:04:17;;;;;;;12.33;4.13;;;;;;;;;;680090;28;4304;-80
2023/12/27 00:04:41;;;;;;;12.77;4.43;;;;;;;;;;680348;29;1340;-81
2023/12/27 00:05:05;;;;;;;13.10;4.25;;;;;;;;;;679734;29;1299;-82
2023/12/27 00:05:29;;;;;;;14.88;4.50;;;;;;;;;;679677;29;876;-81
2023/12/27 00:05:49;;;;;;;12.10;4.50;;;;;;;;;;678307;29;1465;-82
2023/12/27 00:06:10;;;;;;;11.73;4.50;;;;;;;;;;679605;29;1300;-81
2023/12/27 00:06:34;;;;;;;11.75;5.00;;;;;;;;;;678965;29;1166;-81
2023/12/27 00:06:58;;;;;;;12.70;4.88;;;;;;;;;;684899;28;1533;-81
2023/12/27 00:07:22;;;;;;;12.35;4.50;;;;;;;;;;680384;28;4311;-81
2023/12/27 00:07:48;;;;;;;10.90;4.70;;;;;;;;;;681389;29;1285;-81
2023/12/27 00:08:10;;;;;;;10.93;4.35;;;;;;;;;;678308;29;904;-81
2023/12/27 00:08:35;;;;;;;12.05;4.43;;;;;;;;;;677825;29;1172;-81
2023/12/27 00:08:56;;;;;;;15.23;4.85;;;;;;;;;;678457;29;921;-81
2023/12/27 00:09:17;;;;;;;11.05;4.50;;;;;;;;;;676463;29;1447;-81
2023/12/27 00:09:38;;;;;;;11.18;4.45;;;;;;;;;;682981;29;1131;-81
2023/12/27 00:10:00;;;;;;;12.00;4.38;;;;;;;;;;685776;28;1300;-82
2023/12/27 00:10:21;;;;;;;10.98;4.65;;;;;;;;;;684193;28;4308;-82
2023/12/27 00:10:43;;;;;;;11.82;4.78;;;;;;;;;;683487;29;1594;-81
2023/12/27 00:11:04;;;;;;;12.48;4.90;;;;;;;;;;682256;28;1371;-82
2023/12/27 00:11:25;;;;;;;10.82;4.13;;;;;;;;;;680204;29;1338;-81
2023/12/27 00:11:47;;;;;;;13.60;4.45;;;;;;;;;;680764;29;1432;-81
2023/12/27 00:12:15;;;;;;;13.80;4.70;;;;;;;;;;682069;28;1424;-81
2023/12/27 00:12:35;;;;;;;13.20;4.50;;;;;;;;;;682133;29;1348;-80
2023/12/27 00:12:56;;;;;;;10.37;4.30;;;;;;;;;;683434;29;853;-81
2023/12/27 00:13:16;;;;;;;10.55;4.35;;;;;;;;;;681801;28;4301;-81
2023/12/27 00:13:40;;;;;;;11.13;4.37;;;;;;;;;;678214;29;1225;-80
2023/12/27 00:14:05;;;;;;;11.07;4.32;;;;;;;;;;677763;29;1450;-81
2023/12/27 00:14:28;;;;;;;12.77;4.40;;;;;;;;;;677870;29;830;-81
2023/12/27 00:14:48;;;;;;;12.32;4.28;;;;;;;;;;676469;29;1305;-81
2023/12/27 00:15:13;;;;;;;12.63;4.10;;;;;;;;;;678795;29;1477;-81
2023/12/27 00:15:38;;;;;;;11.82;4.47;;;;;;;;;;681835;28;1328;-81
2023/12/27 00:16:01;;;;;;;12.73;4.22;;;;;;;;;;684751;28;1268;-81
2023/12/27 00:16:21;;;;;;;12.77;4.47;;;;;;;;;;674330;28;4319;-82
2023/12/27 00:16:42;;;;;;;11.03;4.40;;;;;;;;;;682118;28;1099;-81
2023/12/27 00:17:25;;;;;;;11.65;4.45;;;;;;;;;;684841;28;1178;-80
2023/12/27 00:17:53;;;;;;;12.95;4.72;;;;;;;;;;683152;29;1136;-80
2023/12/27 00:18:17;;;;;;;13.52;4.80;;;;;;;;;;680600;29;1471;-81
2023/12/27 00:18:37;;;;;;;13.77;4.60;;;;;;;;;;685995;28;1539;-81
2023/12/27 00:18:58;;;;;;;12.70;4.57;;;;;;;;;;686069;28;1394;-82
2023/12/27 00:19:19;;;;;;;12.13;4.20;;;;;;;;;;679044;28;4278;-82
2023/12/27 00:19:39;;;;;;;10.27;4.00;;;;;;;;;;680600;29;850;-81
2023/12/27 00:20:00;;;;;;;12.35;4.60;;;;;;;;;;685216;28;896;-81
2023/12/27 00:20:20;;;;;;;11.60;4.30;;;;;;;;;;678856;29;1357;-82
2023/12/27 00:20:41;;;;;;;12.23;4.47;;;;;;;;;;684395;28;3757;-81
2023/12/27 00:21:04;;;;;;;11.57;4.70;;;;;;;;;;684061;28;1959;-81
2023/12/27 00:21:25;;;;;;;10.70;4.72;;;;;;;;;;683581;28;1274;-81
2023/12/27 00:21:45;;;;;;;8.60;4.27;;;;;;;;;;687816;28;1307;-81
2023/12/27 00:22:08;;;;;;;10.82;4.60;;;;;;;;;;679053;29;1147;-81
2023/12/27 00:22:28;;;;;;;12.98;4.80;;;;;;;;;;680166;29;4243;-81
2023/12/27 00:22:51;;;;;;;10.77;4.10;;;;;;;;;;682267;29;1183;-81
2023/12/27 00:23:12;;;;;;;8.98;4.10;;;;;;;;;;687294;28;1465;-81
2023/12/27 00:23:40;;;;;;;10.43;4.30;;;;;;;;;;682062;29;1415;-81
2023/12/27 00:24:03;;;;;;;9.75;4.20;;;;;;;;;;683160;29;1012;-81
2023/12/27 00:24:26;;;;;;;10.50;4.03;;;;;;;;;;680302;29;1492;-81
2023/12/27 00:24:46;;;;;;;11.43;4.40;;;;;;;;;;681840;29;882;-82
2023/12/27 00:25:09;;;;;;;10.93;4.20;;;;;;;;;;680075;29;1478;-82
2023/12/27 00:25:29;;;;;;;9.10;4.07;;;;;;;;;;681646;29;4250;-82
2023/12/27 00:26:08;;;;;;;9.55;4.43;;;;;;;;;;683073;29;1101;-81
2023/12/27 00:26:30;;;;;;;13.18;4.30;;;;;;;;;;684754;28;1040;-81
2023/12/27 00:26:52;;;;;;;11.02;4.22;;;;;;;;;;683041;29;1269;-82
2023/12/27 00:27:13;;;;;;;14.60;4.10;;;;;;;;;;679347;29;1217;-81
2023/12/27 00:27:35;;;;;;;13.70;4.27;;;;;;;;;;680553;29;1540;-81
2023/12/27 00:27:56;;;;;;;11.38;3.92;;;;;;;;;;679786;29;981;-82
2023/12/27 00:28:16;;;;;;;11.13;4.03;;;;;;;;;;678167;29;4271;-82
2023/12/27 00:28:39;;;;;;;11.17;4.13;;;;;;;;;;681376;28;1178;-82
2023/12/27 00:28:59;;;;;;;9.60;3.90;;;;;;;;;;681414;29;1299;-82
2023/12/27 00:29:22;;;;;;;14.18;4.25;;;;;;;;;;682173;29;1669;-80
2023/12/27 00:29:45;;;;;;;12.70;4.43;;;;;;;;;;683316;29;920;-80
2023/12/27 00:30:16;;;;;;;10.23;4.07;;;;;;;;;;682508;28;1386;-82
2023/12/27 00:30:38;;;;;;;12.65;4.07;;;;;;;;;;682859;29;1371;-82
2023/12/27 00:31:00;;;;;;;11.07;4.13;;;;;;;;;;688274;28;1207;-80
2023/12/27 00:31:20;;;;;;;10.55;4.40;;;;;;;;;;681671;28;4279;-80
2023/12/27 00:31:41;;;;;;;10.27;4.10;;;;;;;;;;680797;29;1292;-81
2023/12/27 00:32:08;;;;;;;12.50;4.57;;;;;;;;;;679795;29;1153;-82
2023/12/27 00:32:29;;;;;;;11.18;4.15;;;;;;;;;;681046;29;1327;-81
2023/12/27 00:32:49;;;;;;;10.03;4.50;;;;;;;;;;681930;29;1206;-82
2023/12/27 00:33:12;;;;;;;12.73;5.00;;;;;;;;;;682241;29;1440;-83
2023/12/27 00:33:38;;;;;;;9.93;4.40;;;;;;;;;;680663;29;1269;-82
2023/12/27 00:33:59;;;;;;;11.68;4.50;;;;;;;;;;678237;29;905;-82
2023/12/27 00:34:19;;;;;;;11.48;4.20;;;;;;;;;;677429;29;4318;-81
2023/12/27 00:34:40;;;;;;;13.30;4.40;;;;;;;;;;678973;29;1154;-82
2023/12/27 00:35:00;;;;;;;13.97;4.63;;;;;;;;;;680899;29;960;-81
2023/12/27 00:35:26;;;;;;;11.45;4.55;;;;;;;;;;682704;28;1298;-81
2023/12/27 00:35:47;;;;;;;12.43;4.28;;;;;;;;;;683402;29;1436;-82
2023/12/27 00:36:10;;;;;;;12.50;4.20;;;;;;;;;;682138;28;1239;-82
2023/12/27 00:36:38;;;;;;;9.93;4.00;;;;;;;;;;680572;29;1204;-82
2023/12/27 00:36:59;;;;;;;12.02;4.50;;;;;;;;;;682771;29;1292;-82
2023/12/27 00:37:27;;;;;;;11.85;3.75;;;;;;;;;;679518;29;4289;-81
2023/12/27 00:37:57;;;;;;;11.23;4.13;;;;;;;;;;682812;29;916;-82
2023/12/27 00:38:41;;;;;;;12.52;4.13;;;;;;;;;;682751;28;1212;-82
2023/12/27 00:39:11;;;;;;;10.68;3.90;;;;;;;;;;685121;28;1107;-82
2023/12/27 00:39:54;;;;;;;10.00;4.07;;;;;;;;;;684918;28;1107;-83
2023/12/27 00:40:14;;;;;;;12.65;4.72;;;;;;;;;;681678;29;4282;-83
2023/12/27 00:40:35;;;;;;;12.38;4.88;;;;;;;;;;680371;29;1358;-81
2023/12/27 00:40:55;;;;;;;10.03;4.27;;;;;;;;;;679710;29;1964;-82
2023/12/27 00:41:15;;;;;;;9.88;3.92;;;;;;;;;;678909;29;1386;-81
2023/12/27 00:41:36;;;;;;;10.97;4.10;;;;;;;;;;682841;28;1336;-81
2023/12/27 00:41:56;;;;;;;13.43;4.20;;;;;;;;;;682385;28;1156;-81
2023/12/27 00:42:23;;;;;;;12.93;4.25;;;;;;;;;;680926;29;1442;-82
2023/12/27 00:42:46;;;;;;;11.57;4.03;;;;;;;;;;685048;28;1437;-82
2023/12/27 00:43:13;;;;;;;10.70;4.05;;;;;;;;;;684525;28;1113;-82
2023/12/27 00:43:39;;;;;;;9.70;4.05;;;;;;;;;;685052;28;4696;-81
2023/12/27 00:44:00;;;;;;;10.98;4.20;;;;;;;;;;685674;28;883;-81
2023/12/27 00:44:23;;;;;;;10.63;4.40;;;;;;;;;;681057;29;1046;-81
2023/12/27 00:44:48;;;;;;;8.80;4.03;;;;;;;;;;684226;28;1208;-81
2023/12/27 00:45:09;;;;;;;10.43;4.00;;;;;;;;;;680441;29;1047;-81
2023/12/27 00:45:29;;;;;;;10.60;4.00;;;;;;;;;;682592;29;1308;-81
2023/12/27 00:45:50;;;;;;;11.30;4.10;;;;;;;;;;679237;29;1320;-81
2023/12/27 00:46:10;;;;;;;12.53;4.27;;;;;;;;;;678917;29;1735;-79
2023/12/27 00:46:33;;;;;;;10.50;4.10;;;;;;;;;;677590;29;4338;-80
2023/12/27 00:47:04;;;;;;;;;;;;;;;;;;;;;
2023/12/27 00:47:24;;;;;;;10.05;4.10;;;;;;;;;;679603;29;1140;-81
2023/12/27 00:47:50;;;;;;;11.47;4.30;;;;;;;;;;681367;29;1353;-81
2023/12/27 00:48:13;;;;;;;10.48;4.13;;;;;;;;;;678691;29;1293;-82
2023/12/27 00:48:34;;;;;;;9.35;3.63;;;;;;;;;;681926;29;1541;-81
2023/12/27 00:48:56;;;;;;;9.65;3.88;;;;;;;;;;682532;29;861;-81
2023/12/27 00:49:24;;;;;;;8.23;4.10;;;;;;;;;;678842;29;4282;-81
2023/12/27 00:49:45;;;;;;;9.45;3.70;;;;;;;;;;683196;29;1397;-81
2023/12/27 00:50:11;;;;;;;10.88;4.10;;;;;;;;;;680090;29;1365;-81
2023/12/27 00:50:32;;;;;;;13.13;4.00;;;;;;;;;;683202;29;1400;-81
2023/12/27 00:50:57;;;;;;;8.98;3.53;;;;;;;;;;680663;29;1260;-81
2023/12/27 00:51:23;;;;;;;10.30;4.18;;;;;;;;;;679162;29;1069;-82
2023/12/27 00:51:44;;;;;;;12.60;4.28;;;;;;;;;;678596;29;918;-81
2023/12/27 00:52:12;;;;;;;13.52;4.28;;;;;;;;;;678978;29;1439;-81
2023/12/27 00:52:34;;;;;;;8.75;3.72;;;;;;;;;;682777;29;4823;-80
2023/12/27 00:52:55;;;;;;;8.57;4.20;;;;;;;;;;677523;29;1363;-82
2023/12/27 00:53:23;;;;;;;9.13;3.97;;;;;;;;;;678626;29;1544;-82
2023/12/27 00:53:43;;;;;;;12.40;3.90;;;;;;;;;;682208;29;1244;-82
2023/12/27 00:54:06;;;;;;;12.80;4.10;;;;;;;;;;681986;29;867;-82
2023/12/27 00:54:26;;;;;;;13.93;4.38;;;;;;;;;;682219;29;1345;-82
2023/12/27 00:54:47;;;;;;;13.67;4.07;;;;;;;;;;682213;29;1323;-81
2023/12/27 00:55:10;;;;;;;13.80;4.07;;;;;;;;;;680825;29;1352;-83
2023/12/27 00:55:38;;;;;;;11.35;4.13;;;;;;;;;;683535;28;4825;-81
2023/12/27 00:56:01;;;;;;;8.85;3.70;;;;;;;;;;685859;28;1422;-82
2023/12/27 00:56:22;;;;;;;9.93;3.88;;;;;;;;;;685191;28;1206;-81
2023/12/27 00:56:43;;;;;;;12.20;4.18;;;;;;;;;;683420;29;1233;-82
2023/12/27 00:57:06;;;;;;;9.87;4.07;;;;;;;;;;679854;29;1373;-81
2023/12/27 00:57:26;;;;;;;12.70;4.10;;;;;;;;;;679315;29;1127;-82
2023/12/27 00:57:47;;;;;;;12.15;4.07;;;;;;;;;;676509;29;1287;-82
2023/12/27 00:58:08;;;;;;;10.57;4.50;;;;;;;;;;682024;28;1334;-83
2023/12/27 00:58:31;;;;;;;13.32;4.38;;;;;;;;;;681054;29;4295;-81
2023/12/27 00:58:55;;;;;;;12.05;4.25;;;;;;;;;;683474;29;842;-82
2023/12/27 00:59:16;;;;;;;10.82;4.22;;;;;;;;;;682224;28;1306;-82
2023/12/27 00:59:36;;;;;;;10.65;4.00;;;;;;;;;;680121;29;1305;-83
2023/12/27 00:59:57;;;;;;;10.17;4.07;;;;;;;;;;680497;29;1293;-84
2023/12/27 01:00:20;;;;;;;11.77;4.15;;;;;;;;;;679298;29;873;-82
2023/12/27 01:00:44;;;;;;;12.15;4.10;;;;;;;;;;680704;29;901;-81
2023/12/27 01:01:07;;;;;;;10.32;4.10;;;;;;;;;;677822;29;1903;-82
2023/12/27 01:01:41;;;;;;;9.80;3.88;;;;;;;;;;666981;29;4309;-82
2023/12/27 01:02:08;;;;;;;10.13;3.90;;;;;;;;;;678875;29;921;-80
2023/12/27 01:02:30;;;;;;;13.27;3.97;;;;;;;;;;682113;29;1224;-81
2023/12/27 01:02:53;;;;;;;12.27;4.28;;;;;;;;;;682652;29;945;-81
2023/12/27 01:03:23;;;;;;;11.75;4.18;;;;;;;;;;675888;29;1300;-82
2023/12/27 01:03:44;;;;;;;12.25;4.30;;;;;;;;;;674906;29;1471;-81
2023/12/27 01:04:07;;;;;;;12.43;4.40;;;;;;;;;;678206;29;1356;-83
2023/12/27 01:04:28;;;;;;;12.60;3.95;;;;;;;;;;672693;29;4251;-82
2023/12/27 01:04:55;;;;;;;10.82;3.97;;;;;;;;;;676889;29;1252;-82
2023/12/27 01:05:16;;;;;;;7.78;3.90;;;;;;;;;;678665;29;1035;-82
2023/12/27 01:05:36;;;;;;;9.60;3.83;;;;;;;;;;681000;29;1475;-83
2023/12/27 01:05:57;;;;;;;12.67;4.30;;;;;;;;;;681187;28;1130;-81
2023/12/27 01:06:18;;;;;;;11.70;4.40;;;;;;;;;;680952;29;1243;-81
2023/12/27 01:06:39;;;;;;;10.53;4.17;;;;;;;;;;680341;29;1435;-82
2023/12/27 01:06:59;;;;;;;10.35;4.20;;;;;;;;;;679085;29;865;-81
2023/12/27 01:07:23;;;;;;;11.00;4.15;;;;;;;;;;681318;28;4361;-81
2023/12/27 01:07:43;;;;;;;11.82;4.22;;;;;;;;;;681727;29;1124;-81
2023/12/27 01:08:09;;;;;;;11.52;4.38;;;;;;;;;;682354;29;1225;-82
2023/12/27 01:08:30;;;;;;;11.82;4.22;;;;;;;;;;678964;29;1411;-81
2023/12/27 01:08:51;;;;;;;11.57;4.07;;;;;;;;;;682997;29;1205;-81
2023/12/27 01:09:12;;;;;;;11.83;4.50;;;;;;;;;;685007;28;1225;-81
2023/12/27 01:09:35;;;;;;;12.77;4.70;;;;;;;;;;680374;29;1152;-82
2023/12/27 01:09:58;;;;;;;10.88;4.13;;;;;;;;;;679916;29;1332;-83
2023/12/27 01:10:21;;;;;;;12.82;4.43;;;;;;;;;;679282;29;4257;-82
2023/12/27 01:10:50;;;;;;;9.10;3.90;;;;;;;;;;683006;29;1324;-82
2023/12/27 01:11:15;;;;;;;8.85;3.92;;;;;;;;;;680693;28;1333;-82
2023/12/27 01:11:39;;;;;;;10.93;4.30;;;;;;;;;;679458;29;902;-82
2023/12/27 01:12:01;;;;;;;8.00;4.00;;;;;;;;;;680429;29;1122;-81
2023/12/27 01:12:26;;;;;;;9.48;3.97;;;;;;;;;;681105;28;1265;-82
2023/12/27 01:12:49;;;;;;;10.00;3.95;;;;;;;;;;682753;29;1372;-82
2023/12/27 01:13:12;;;;;;;10.23;4.00;;;;;;;;;;679165;29;1360;-83
2023/12/27 01:13:33;;;;;;;9.57;3.97;;;;;;;;;;678657;29;4194;-82
2023/12/27 01:13:53;;;;;;;9.32;3.95;;;;;;;;;;677370;29;865;-82
2023/12/27 01:14:19;;;;;;;9.65;4.10;;;;;;;;;;678237;29;1344;-80
2023/12/27 01:14:39;;;;;;;9.27;4.00;;;;;;;;;;685702;28;1513;-82
2023/12/27 01:15:00;;;;;;;13.10;4.40;;;;;;;;;;682493;28;1359;-83
2023/12/27 01:15:23;;;;;;;13.80;4.47;;;;;;;;;;681544;29;1108;-82
2023/12/27 01:15:44;;;;;;;11.73;4.43;;;;;;;;;;681285;29;1293;-81
2023/12/27 01:16:04;;;;;;;10.68;4.38;;;;;;;;;;673652;29;1307;-83
2023/12/27 01:16:24;;;;;;;10.43;4.30;;;;;;;;;;678210;28;4490;-82
2023/12/27 01:16:50;;;;;;;10.10;4.00;;;;;;;;;;680735;29;1350;-81
2023/12/27 01:17:14;;;;;;;10.65;4.07;;;;;;;;;;681154;29;3492;-83
2023/12/27 01:17:34;;;;;;;11.32;4.15;;;;;;;;;;683278;28;1454;-81
2023/12/27 01:17:54;;;;;;;10.70;4.07;;;;;;;;;;681589;29;1003;-80
2023/12/27 01:18:15;;;;;;;10.10;3.77;;;;;;;;;;680074;29;1386;-81
2023/12/27 01:18:35;;;;;;;11.13;4.03;;;;;;;;;;680533;29;1112;-81
2023/12/27 01:18:55;;;;;;;9.43;4.30;;;;;;;;;;679735;29;1189;-81
2023/12/27 01:19:25;;;;;;;8.90;4.15;;;;;;;;;;675486;29;4384;-81
2023/12/27 01:19:46;;;;;;;10.70;4.25;;;;;;;;;;679507;29;1441;-82
2023/12/27 01:20:10;;;;;;;10.15;4.53;;;;;;;;;;678178;29;1423;-82
2023/12/27 01:20:30;;;;;;;10.07;4.32;;;;;;;;;;677149;29;992;-83
2023/12/27 01:20:51;;;;;;;9.70;4.20;;;;;;;;;;678663;29;878;-82
2023/12/27 01:21:13;;;;;;;10.02;4.50;;;;;;;;;;678844;29;1985;-81
2023/12/27 01:21:36;;;;;;;9.65;4.22;;;;;;;;;;681087;29;1235;-81
2023/12/27 01:21:56;;;;;;;11.93;4.45;;;;;;;;;;682557;28;1310;-81
2023/12/27 01:22:17;;;;;;;13.00;4.82;;;;;;;;;;681879;28;4520;-82
2023/12/27 01:22:39;;;;;;;13.45;4.75;;;;;;;;;;683231;28;1358;-81
2023/12/27 01:23:02;;;;;;;10.60;4.43;;;;;;;;;;684685;28;1360;-81
2023/12/27 01:23:22;;;;;;;9.02;4.30;;;;;;;;;;682617;28;1047;-82
2023/12/27 01:23:43;;;;;;;10.60;4.43;;;;;;;;;;682473;29;1156;-80
2023/12/27 01:24:03;;;;;;;11.97;4.83;;;;;;;;;;678728;29;1368;-82
2023/12/27 01:24:24;;;;;;;12.77;4.97;;;;;;;;;;681057;28;1239;-81
2023/12/27 01:24:47;;;;;;;10.68;4.47;;;;;;;;;;681144;29;747;-81
2023/12/27 01:25:09;;;;;;;9.93;4.15;;;;;;;;;;679161;29;783;-83
2023/12/27 01:25:29;;;;;;;9.57;4.10;;;;;;;;;;681704;29;4259;-83
2023/12/27 01:25:52;;;;;;;10.37;4.33;;;;;;;;;;679365;29;1287;-81
2023/12/27 01:26:15;;;;;;;12.45;4.55;;;;;;;;;;679476;29;1272;-83
2023/12/27 01:26:38;;;;;;;14.38;4.32;;;;;;;;;;681281;29;948;-82
2023/12/27 01:27:01;;;;;;;11.55;4.00;;;;;;;;;;681256;29;1440;-82
2023/12/27 01:27:22;;;;;;;12.25;4.50;;;;;;;;;;681901;28;1314;-82
2023/12/27 01:27:46;;;;;;;10.57;4.20;;;;;;;;;;682542;28;1216;-82
2023/12/27 01:28:11;;;;;;;12.93;4.70;;;;;;;;;;683068;29;948;-82
2023/12/27 01:28:32;;;;;;;10.65;4.50;;;;;;;;;;676970;29;4281;-81
2023/12/27 01:28:53;;;;;;;10.75;4.47;;;;;;;;;;682239;29;1379;-82
2023/12/27 01:29:19;;;;;;;10.18;4.20;;;;;;;;;;679344;29;1060;-81
2023/12/27 01:29:42;;;;;;;14.00;4.80;;;;;;;;;;679764;29;1321;-81
2023/12/27 01:30:03;;;;;;;11.85;4.30;;;;;;;;;;684502;28;1201;-82
2023/12/27 01:30:26;;;;;;;10.20;4.38;;;;;;;;;;682402;28;1144;-81
2023/12/27 01:30:46;;;;;;;10.20;4.22;;;;;;;;;;680932;29;1213;-81
2023/12/27 01:31:08;;;;;;;11.10;4.33;;;;;;;;;;683043;28;1234;-82
2023/12/27 01:31:28;;;;;;;10.50;4.70;;;;;;;;;;682769;28;4483;-82
2023/12/27 01:31:51;;;;;;;10.87;4.80;;;;;;;;;;679668;29;1179;-82
2023/12/27 01:32:12;;;;;;;9.70;4.07;;;;;;;;;;678983;29;1726;-82
2023/12/27 01:32:32;;;;;;;8.85;3.92;;;;;;;;;;681710;29;1403;-82
2023/12/27 01:32:52;;;;;;;9.60;4.10;;;;;;;;;;682654;29;1444;-82
2023/12/27 01:33:13;;;;;;;10.70;4.10;;;;;;;;;;680575;29;923;-82
2023/12/27 01:33:36;;;;;;;9.83;4.17;;;;;;;;;;684720;28;1222;-82
2023/12/27 01:33:59;;;;;;;13.45;4.32;;;;;;;;;;681492;28;1241;-82
2023/12/27 01:34:22;;;;;;;11.90;3.97;;;;;;;;;;681317;28;4365;-82
2023/12/27 01:34:42;;;;;;;10.55;3.70;;;;;;;;;;681950;29;1438;-82
2023/12/27 01:35:03;;;;;;;9.30;3.90;;;;;;;;;;685499;28;1182;-81
2023/12/27 01:35:23;;;;;;;8.85;4.03;;;;;;;;;;677962;29;1127;-81
2023/12/27 01:35:45;;;;;;;10.60;4.30;;;;;;;;;;679565;29;1444;-81
2023/12/27 01:36:07;;;;;;;11.48;4.10;;;;;;;;;;681949;29;1272;-82
2023/12/27 01:36:27;;;;;;;11.48;4.03;;;;;;;;;;679673;29;1381;-82
2023/12/27 01:36:47;;;;;;;12.93;4.43;;;;;;;;;;684188;28;1288;-82
2023/12/27 01:37:11;;;;;;;9.57;4.38;;;;;;;;;;678029;29;1081;-82
2023/12/27 01:37:34;;;;;;;8.75;3.70;;;;;;;;;;679737;29;4273;-81
2023/12/27 01:37:56;;;;;;;10.32;3.80;;;;;;;;;;679789;29;1036;-82
2023/12/27 01:38:19;;;;;;;11.13;4.13;;;;;;;;;;678443;29;1500;-82
2023/12/27 01:38:39;;;;;;;11.48;4.13;;;;;;;;;;679731;29;1341;-82
2023/12/27 01:39:02;;;;;;;10.93;4.03;;;;;;;;;;680002;29;1336;-82
2023/12/27 01:39:24;;;;;;;10.52;4.05;;;;;;;;;;679445;29;5245;-82
2023/12/27 01:39:45;;;;;;;10.10;3.90;;;;;;;;;;678629;29;1378;-82
2023/12/27 01:40:11;;;;;;;9.83;3.73;;;;;;;;;;682262;28;879;-82
2023/12/27 01:40:34;;;;;;;10.50;4.15;;;;;;;;;;679864;29;4788;-82
2023/12/27 01:40:57;;;;;;;12.18;3.90;;;;;;;;;;676048;29;1388;-81
2023/12/27 01:41:19;;;;;;;9.97;4.00;;;;;;;;;;678435;29;2048;-82
2023/12/27 01:41:39;;;;;;;10.00;3.88;;;;;;;;;;682588;29;1347;-82
2023/12/27 01:42:05;;;;;;;10.57;3.63;;;;;;;;;;683158;28;1291;-81
2023/12/27 01:42:27;;;;;;;9.90;3.97;;;;;;;;;;684599;28;1394;-82
2023/12/27 01:42:48;;;;;;;10.50;4.25;;;;;;;;;;685559;28;1438;-82
2023/12/27 01:43:10;;;;;;;10.85;4.38;;;;;;;;;;680687;29;1298;-83
2023/12/27 01:43:31;;;;;;;8.38;3.97;;;;;;;;;;677929;29;4293;-81
2023/12/27 01:43:54;;;;;;;12.50;3.77;;;;;;;;;;677016;29;1368;-83
2023/12/27 01:44:16;;;;;;;15.98;4.15;;;;;;;;;;677800;29;1500;-82
2023/12/27 01:44:37;;;;;;;9.93;3.90;;;;;;;;;;677707;29;1280;-81
2023/12/27 01:44:57;;;;;;;10.63;4.37;;;;;;;;;;679406;29;1415;-81
2023/12/27 01:45:17;;;;;;;9.87;3.87;;;;;;;;;;679882;29;1341;-82
2023/12/27 01:45:40;;;;;;;9.85;3.92;;;;;;;;;;682738;28;1284;-80
2023/12/27 01:46:01;;;;;;;12.15;3.97;;;;;;;;;;681871;28;1217;-82
2023/12/27 01:46:22;;;;;;;9.82;3.80;;;;;;;;;;679335;29;4289;-81
2023/12/27 01:46:45;;;;;;;10.10;3.70;;;;;;;;;;680080;29;1283;-81
2023/12/27 01:47:06;;;;;;;12.57;3.92;;;;;;;;;;678207;29;1302;-82
2023/12/27 01:47:27;;;;;;;11.93;4.22;;;;;;;;;;681730;29;1320;-81
2023/12/27 01:47:50;;;;;;;11.77;4.20;;;;;;;;;;682708;28;1399;-81
2023/12/27 01:48:10;;;;;;;11.07;4.30;;;;;;;;;;677013;29;1134;-82
2023/12/27 01:48:31;;;;;;;11.60;4.03;;;;;;;;;;677835;29;1523;-82
2023/12/27 01:48:51;;;;;;;12.82;3.92;;;;;;;;;;677391;29;1075;-82
2023/12/27 01:49:12;;;;;;;12.50;3.97;;;;;;;;;;673190;29;1134;-82
2023/12/27 01:49:34;;;;;;;11.10;4.20;;;;;;;;;;672392;29;4628;-82
2023/12/27 01:49:54;;;;;;;9.80;3.93;;;;;;;;;;682677;29;869;-82
2023/12/27 01:50:15;;;;;;;10.35;3.90;;;;;;;;;;682078;29;983;-81
2023/12/27 01:50:40;;;;;;;10.40;3.60;;;;;;;;;;680216;29;914;-81
2023/12/27 01:51:02;;;;;;;10.27;3.72;;;;;;;;;;682878;29;1390;-82
2023/12/27 01:51:26;;;;;;;9.93;3.75;;;;;;;;;;680988;28;1264;-82
2023/12/27 01:51:46;;;;;;;9.70;3.75;;;;;;;;;;682550;28;1363;-82
2023/12/27 01:52:16;;;;;;;11.90;3.93;;;;;;;;;;682758;28;1101;-82
2023/12/27 01:52:50;;;;;;;10.85;3.70;;;;;;;;;;682745;29;4761;-82
2023/12/27 01:53:10;;;;;;;12.25;4.00;;;;;;;;;;682942;28;1003;-83
2023/12/27 01:53:31;;;;;;;13.57;4.03;;;;;;;;;;683990;28;1288;-82
2023/12/27 01:53:56;;;;;;;10.18;3.95;;;;;;;;;;680205;29;893;-82
2023/12/27 01:54:16;;;;;;;9.75;3.75;;;;;;;;;;681555;28;936;-82
2023/12/27 01:54:37;;;;;;;9.60;3.57;;;;;;;;;;683653;28;1409;-82
2023/12/27 01:54:58;;;;;;;10.25;3.80;;;;;;;;;;681442;29;1348;-82
2023/12/27 01:55:19;;;;;;;10.98;4.30;;;;;;;;;;685276;28;4273;-82
2023/12/27 01:55:40;;;;;;;9.82;4.15;;;;;;;;;;683043;28;1278;-82
2023/12/27 01:56:01;;;;;;;9.93;3.83;;;;;;;;;;683911;28;1260;-82
2023/12/27 01:56:24;;;;;;;9.77;3.75;;;;;;;;;;684590;28;1349;-82
2023/12/27 01:56:45;;;;;;;8.77;3.60;;;;;;;;;;682836;28;1284;-82
2023/12/27 01:57:10;;;;;;;9.85;3.65;;;;;;;;;;683577;28;1142;-82
2023/12/27 01:57:33;;;;;;;8.73;3.70;;;;;;;;;;681182;28;1424;-82
2023/12/27 01:57:54;;;;;;;9.70;3.83;;;;;;;;;;678603;29;1226;-82
2023/12/27 01:58:18;;;;;;;9.07;4.05;;;;;;;;;;670922;29;4268;-82
2023/12/27 01:58:38;;;;;;;10.80;4.07;;;;;;;;;;680037;29;1043;-81
2023/12/27 01:58:59;;;;;;;13.93;4.13;;;;;;;;;;680746;29;1171;-81
2023/12/27 01:59:27;;;;;;;12.40;3.65;;;;;;;;;;682136;28;1356;-82
2023/12/27 01:59:48;;;;;;;14.43;4.00;;;;;;;;;;685330;28;1324;-82
2023/12/27 02:00:09;;;;;;;12.50;4.00;;;;;;;;;;685203;28;1166;-82
2023/12/27 02:00:37;;;;;;;12.35;4.13;;;;;;;;;;683839;28;845;-81
2023/12/27 02:00:58;;;;;;;9.43;3.75;;;;;;;;;;682963;28;1222;-81
2023/12/27 02:01:18;;;;;;;9.15;3.55;;;;;;;;;;682166;28;4274;-82
2023/12/27 02:01:39;;;;;;;13.13;4.00;;;;;;;;;;687491;28;1253;-81
2023/12/27 02:02:00;;;;;;;10.80;3.63;;;;;;;;;;686035;28;1315;-82
2023/12/27 02:02:25;;;;;;;12.40;4.05;;;;;;;;;;687187;28;1209;-81
2023/12/27 02:02:46;;;;;;;12.40;3.78;;;;;;;;;;688242;28;1169;-82
2023/12/27 02:03:07;;;;;;;11.55;3.90;;;;;;;;;;683130;28;1269;-81
2023/12/27 02:03:33;;;;;;;11.52;3.70;;;;;;;;;;675474;29;1065;-84
2023/12/27 02:03:56;;;;;;;10.52;3.72;;;;;;;;;;676612;29;1313;-82
2023/12/27 02:04:18;;;;;;;9.10;3.83;;;;;;;;;;677387;29;4292;-83
2023/12/27 02:04:39;;;;;;;9.93;3.80;;;;;;;;;;681649;29;1494;-81
2023/12/27 02:05:00;;;;;;;10.45;3.72;;;;;;;;;;682892;29;1261;-81
2023/12/27 02:05:21;;;;;;;10.10;3.80;;;;;;;;;;680115;29;1320;-81
2023/12/27 02:05:42;;;;;;;9.80;3.72;;;;;;;;;;674947;29;1282;-82
2023/12/27 02:06:04;;;;;;;10.52;3.90;;;;;;;;;;675353;29;1422;-82
2023/12/27 02:06:27;;;;;;;10.93;3.67;;;;;;;;;;676444;29;1437;-81
2023/12/27 02:06:48;;;;;;;11.43;3.70;;;;;;;;;;676173;29;1341;-82
2023/12/27 02:07:11;;;;;;;10.27;3.70;;;;;;;;;;677807;29;1071;-82
2023/12/27 02:07:32;;;;;;;10.00;3.92;;;;;;;;;;682283;28;4281;-82
2023/12/27 02:07:52;;;;;;;10.40;3.95;;;;;;;;;;680244;29;1350;-82
2023/12/27 02:08:14;;;;;;;9.20;3.50;;;;;;;;;;679237;29;1091;-82
2023/12/27 02:08:37;;;;;;;8.98;3.55;;;;;;;;;;679246;28;1409;-82
2023/12/27 02:08:57;;;;;;;8.93;3.70;;;;;;;;;;678648;29;1179;-82
2023/12/27 02:09:18;;;;;;;10.82;3.92;;;;;;;;;;678105;29;1396;-81
2023/12/27 02:09:43;;;;;;;9.25;3.67;;;;;;;;;;678440;29;953;-82
2023/12/27 02:10:06;;;;;;;11.13;3.80;;;;;;;;;;678287;29;807;-81
2023/12/27 02:10:30;;;;;;;9.68;3.72;;;;;;;;;;669570;29;4339;-82
2023/12/27 02:10:50;;;;;;;10.00;4.22;;;;;;;;;;682606;28;906;-81
2023/12/27 02:11:13;;;;;;;10.85;4.22;;;;;;;;;;683639;28;1479;-81
2023/12/27 02:11:33;;;;;;;10.98;4.13;;;;;;;;;;682575;29;1115;-82
2023/12/27 02:11:54;;;;;;;9.87;3.80;;;;;;;;;;684756;28;1357;-82
2023/12/27 02:12:35;;;;;;;8.73;3.70;;;;;;;;;;684966;28;919;-81
2023/12/27 02:13:10;;;;;;;11.07;3.70;;;;;;;;;;683490;28;1452;-82
2023/12/27 02:13:33;;;;;;;10.20;3.70;;;;;;;;;;683175;28;4474;-83
2023/12/27 02:13:53;;;;;;;10.10;3.65;;;;;;;;;;678070;29;1410;-82
2023/12/27 02:14:17;;;;;;;8.90;3.53;;;;;;;;;;679810;29;1021;-82
2023/12/27 02:14:40;;;;;;;10.13;3.60;;;;;;;;;;680557;29;865;-81
2023/12/27 02:15:05;;;;;;;9.10;3.30;;;;;;;;;;682659;29;1372;-82
2023/12/27 02:15:35;;;;;;;9.48;3.42;;;;;;;;;;687837;28;1356;-82
2023/12/27 02:16:01;;;;;;;10.85;3.42;;;;;;;;;;686958;28;1613;-82
2023/12/27 02:16:27;;;;;;;9.20;3.63;;;;;;;;;;679557;28;4342;-82
2023/12/27 02:16:48;;;;;;;9.52;3.88;;;;;;;;;;681354;28;1317;-82
2023/12/27 02:17:11;;;;;;;9.73;3.78;;;;;;;;;;680411;29;1415;-82
2023/12/27 02:17:32;;;;;;;11.17;3.63;;;;;;;;;;681648;29;1469;-81
2023/12/27 02:17:52;;;;;;;10.40;3.65;;;;;;;;;;682956;28;1399;-81
2023/12/27 02:18:14;;;;;;;10.13;3.70;;;;;;;;;;679096;29;1283;-82
2023/12/27 02:18:37;;;;;;;9.00;3.42;;;;;;;;;;679333;29;1333;-81
2023/12/27 02:19:04;;;;;;;7.43;3.42;;;;;;;;;;680277;29;1442;-82
2023/12/27 02:19:36;;;;;;;9.60;3.22;;;;;;;;;;681809;29;4488;-82